Time;durP1;ratioP1;P1;durP2;ratioP2;P2;SDS_P1;SDS_P2;PMS_P1;PMS_P2;Temp;Humidity;BMP_temperature;BMP_pressure;BME280_temperature;BME280_humidity;BME280_pressure;Samples;Min_cycle;Max_cycle;Signal;HPM_P1;HPM_P2
2024/01/23 00:01:21;;;;;;;14.52;3.00;;;7.20;99.90;;;;;;5010353;28;20046;-64
2024/01/23 00:03:47;;;;;;;20.73;3.10;;;7.20;99.90;;;;;;5010380;28;20053;-64
2024/01/23 00:06:13;;;;;;;19.52;3.28;;;7.20;99.90;;;;;;5008172;28;20038;-64
2024/01/23 00:08:39;;;;;;;21.02;3.63;;;7.30;99.90;;;;;;5010344;28;20053;-64
2024/01/23 00:11:05;;;;;;;18.75;3.30;;;7.30;99.90;;;;;;5010585;28;20056;-65
2024/01/23 00:13:31;;;;;;;17.75;4.45;;;7.30;99.90;;;;;;5010496;28;20081;-65
2024/01/23 00:15:57;;;;;;;21.55;3.58;;;7.30;99.90;;;;;;5010262;28;20054;-65
2024/01/23 00:18:23;;;;;;;12.27;2.75;;;7.30;99.90;;;;;;5010504;28;20085;-65
2024/01/23 00:20:48;;;;;;;19.52;2.97;;;7.30;99.90;;;;;;5029399;28;20037;-64
2024/01/23 00:23:14;;;;;;;15.82;2.88;;;7.30;99.90;;;;;;5029795;28;20041;-65
2024/01/23 00:25:40;;;;;;;18.38;3.50;;;7.40;99.90;;;;;;5029728;28;20037;-65
2024/01/23 00:28:09;;;;;;;20.55;3.83;;;7.40;99.90;;;;;;5029576;28;20397;-65
2024/01/23 00:30:35;;;;;;;13.63;3.05;;;7.40;99.90;;;;;;5029606;28;20037;-65
2024/01/23 00:33:02;;;;;;;12.05;2.95;;;7.30;99.90;;;;;;5028106;28;20052;-65
2024/01/23 00:35:28;;;;;;;17.40;3.45;;;7.30;99.90;;;;;;5029238;28;20084;-65
2024/01/23 00:37:54;;;;;;;14.68;3.15;;;7.30;99.90;;;;;;5029349;28;20092;-65
2024/01/23 00:40:19;;;;;;;17.45;3.10;;;7.20;99.90;;;;;;5029306;28;20033;-65
2024/01/23 00:42:46;;;;;;;15.35;3.03;;;7.30;99.90;;;;;;5029197;28;20041;-65
2024/01/23 00:45:11;;;;;;;12.23;2.53;;;7.30;99.90;;;;;;5029100;28;20060;-65
2024/01/23 00:47:37;;;;;;;18.83;3.83;;;7.20;99.90;;;;;;5029084;28;20124;-65
2024/01/23 00:50:03;;;;;;;17.05;3.13;;;7.30;99.90;;;;;;5028980;28;20517;-65
2024/01/23 00:52:28;;;;;;;13.65;3.03;;;7.20;99.90;;;;;;5028703;28;20350;-65
2024/01/23 00:54:58;;;;;;;11.98;2.78;;;7.20;99.90;;;;;;5029009;28;20084;-65
2024/01/23 00:57:24;;;;;;;17.90;3.33;;;7.20;99.90;;;;;;5028683;28;20122;-65
2024/01/23 00:59:50;;;;;;;17.63;3.03;;;7.20;99.90;;;;;;5028328;28;20049;-65
2024/01/23 01:02:15;;;;;;;18.90;2.90;;;7.10;99.90;;;;;;5028519;28;20045;-65
2024/01/23 01:04:46;;;;;;;18.10;3.75;;;7.20;99.90;;;;;;5028349;28;20037;-65
2024/01/23 01:07:12;;;;;;;16.30;3.28;;;7.30;99.90;;;;;;5027020;28;20084;-65
2024/01/23 01:09:38;;;;;;;12.40;3.10;;;7.20;99.90;;;;;;5028347;28;20107;-65
2024/01/23 01:12:04;;;;;;;19.48;3.17;;;7.20;99.90;;;;;;5028585;28;20118;-65
2024/01/23 01:14:30;;;;;;;22.27;4.28;;;7.20;99.90;;;;;;5026860;28;20049;-65
2024/01/23 01:16:56;;;;;;;22.27;3.67;;;7.20;99.90;;;;;;5028526;28;20052;-65
2024/01/23 01:19:21;;;;;;;12.43;3.65;;;7.20;99.90;;;;;;5028395;28;20143;-65
2024/01/23 01:21:47;;;;;;;17.40;2.97;;;7.20;99.90;;;;;;5028649;28;20041;-65
2024/01/23 01:24:13;;;;;;;18.85;2.90;;;7.20;99.90;;;;;;5028048;28;20110;-65
2024/01/23 01:26:39;;;;;;;15.07;4.50;;;7.20;99.90;;;;;;5028825;28;20052;-65
2024/01/23 01:29:04;;;;;;;12.05;3.13;;;7.20;99.90;;;;;;5029123;28;20039;-65
2024/01/23 01:31:30;;;;;;;20.52;3.17;;;7.10;99.90;;;;;;5029120;28;20062;-65
2024/01/23 01:33:56;;;;;;;12.15;2.83;;;7.20;99.90;;;;;;5043422;28;20053;-65
2024/01/23 01:36:22;;;;;;;19.05;2.95;;;7.20;99.90;;;;;;5028467;28;20045;-65
2024/01/23 01:38:47;;;;;;;13.50;3.33;;;7.20;99.90;;;;;;5028294;28;20053;-65
2024/01/23 01:41:13;;;;;;;13.88;3.13;;;7.20;99.90;;;;;;5028833;28;20396;-65
2024/01/23 01:43:39;;;;;;;14.02;2.97;;;7.20;99.90;;;;;;5043870;28;20060;-65
2024/01/23 01:46:24;;;;;;;12.90;4.43;;;7.20;99.90;;;;;;5027993;28;20046;-65
2024/01/23 01:48:51;;;;;;;11.60;3.03;;;7.20;99.90;;;;;;5028691;28;20044;-65
2024/01/23 01:51:25;;;;;;;11.77;2.78;;;7.20;99.90;;;;;;5028330;28;20049;-65
2024/01/23 01:53:51;;;;;;;22.90;3.55;;;7.20;99.90;;;;;;5028546;28;20084;-65
2024/01/23 01:56:19;;;;;;;15.80;3.47;;;7.20;99.90;;;;;;5028430;28;20064;-65
2024/01/23 01:58:46;;;;;;;23.48;3.00;;;7.20;99.90;;;;;;5028140;28;20528;-65
2024/01/23 02:01:13;;;;;;;18.42;5.28;;;7.20;99.90;;;;;;5027546;28;20605;-65
2024/01/23 02:03:38;;;;;;;16.17;3.28;;;7.10;99.90;;;;;;5028392;28;20041;-65
2024/01/23 02:06:06;;;;;;;23.50;2.88;;;7.10;99.90;;;;;;5028026;28;20030;-65
2024/01/23 02:08:32;;;;;;;8.80;2.70;;;7.20;99.90;;;;;;5028357;28;20080;-65
2024/01/23 02:10:58;;;;;;;20.85;3.80;;;7.10;99.90;;;;;;5027924;28;20080;-65
2024/01/23 02:13:24;;;;;;;18.88;3.55;;;7.20;99.90;;;;;;5028981;28;20033;-65
2024/01/23 02:15:50;;;;;;;12.70;3.17;;;7.10;99.90;;;;;;5031898;28;20037;-65
2024/01/23 02:18:15;;;;;;;12.48;3.08;;;7.00;99.90;;;;;;5031682;28;20155;-66
2024/01/23 02:20:41;;;;;;;23.92;3.38;;;7.10;99.90;;;;;;5031077;28;20038;-65
2024/01/23 02:23:14;;;;;;;18.73;4.47;;;7.00;99.90;;;;;;5031592;28;20041;-65
2024/01/23 02:25:42;;;;;;;21.25;4.13;;;7.00;99.90;;;;;;5031189;28;20062;-65
2024/01/23 02:28:08;;;;;;;27.73;4.38;;;7.00;99.90;;;;;;5030897;28;20392;-65
2024/01/23 02:30:35;;;;;;;14.13;2.85;;;7.00;99.90;;;;;;5031122;28;20502;-65
2024/01/23 02:33:03;;;;;;;11.70;3.03;;;7.00;99.90;;;;;;5031133;28;20049;-65
2024/01/23 02:35:30;;;;;;;17.10;3.65;;;7.00;99.90;;;;;;5031093;28;20124;-64
2024/01/23 02:37:56;;;;;;;14.98;3.33;;;6.90;99.90;;;;;;5031050;28;20056;-65
2024/01/23 02:40:21;;;;;;;15.50;3.58;;;6.90;99.90;;;;;;5030672;28;20050;-64
2024/01/23 02:42:47;;;;;;;16.58;2.83;;;6.90;99.90;;;;;;5045798;28;20053;-65
2024/01/23 02:45:13;;;;;;;18.90;4.07;;;6.90;99.90;;;;;;5030481;28;20041;-65
2024/01/23 02:47:39;;;;;;;20.80;4.00;;;6.90;99.90;;;;;;5030907;28;20571;-65
2024/01/23 02:50:05;;;;;;;19.80;3.10;;;6.90;99.90;;;;;;5030896;28;20079;-65
2024/01/23 02:52:31;;;;;;;20.27;3.92;;;6.90;99.90;;;;;;5031099;28;20369;-66
2024/01/23 02:54:59;;;;;;;15.88;3.45;;;6.80;99.90;;;;;;5030659;28;20045;-66
2024/01/23 02:57:26;;;;;;;15.13;4.25;;;6.80;99.90;;;;;;5030791;28;20616;-66
2024/01/23 02:59:55;;;;;;;23.05;3.65;;;6.80;99.90;;;;;;5030297;28;20187;-66
2024/01/23 03:02:23;;;;;;;17.52;3.97;;;6.80;99.90;;;;;;5030115;28;20132;-66
2024/01/23 03:04:50;;;;;;;11.77;3.25;;;6.80;99.90;;;;;;5030379;28;20579;-66
2024/01/23 03:07:17;;;;;;;16.63;3.63;;;6.80;99.90;;;;;;5045914;28;20121;-66
2024/01/23 03:09:43;;;;;;;11.88;2.90;;;6.80;99.90;;;;;;5045878;28;20033;-66
2024/01/23 03:12:16;;;;;;;19.38;3.35;;;6.80;99.90;;;;;;5030138;28;20042;-64
2024/01/23 03:14:46;;;;;;;20.17;3.53;;;6.80;99.90;;;;;;5029991;28;20235;-65
2024/01/23 03:17:12;;;;;;;18.00;4.40;;;6.70;99.90;;;;;;5029030;28;20041;-64
2024/01/23 03:19:38;;;;;;;17.23;4.40;;;6.70;99.90;;;;;;5030359;28;20049;-65
2024/01/23 03:22:05;;;;;;;20.67;3.42;;;6.70;99.90;;;;;;5030524;28;20056;-65
2024/01/23 03:24:31;;;;;;;18.58;3.78;;;6.70;99.90;;;;;;5030403;28;20059;-65
2024/01/23 03:26:57;;;;;;;19.42;3.13;;;6.80;99.90;;;;;;5030011;28;20124;-65
2024/01/23 03:29:25;;;;;;;16.48;3.15;;;6.80;99.90;;;;;;5030333;28;20212;-65
2024/01/23 03:31:51;;;;;;;28.25;3.67;;;6.70;99.90;;;;;;5030181;28;20049;-65
2024/01/23 03:34:18;;;;;;;21.30;3.75;;;6.80;99.90;;;;;;5030126;28;20473;-65
2024/01/23 03:36:44;;;;;;;18.75;3.38;;;6.80;99.90;;;;;;5030435;28;20053;-65
2024/01/23 03:39:10;;;;;;;21.45;4.70;;;6.90;99.90;;;;;;5030324;28;20103;-65
2024/01/23 03:41:37;;;;;;;17.27;3.10;;;6.80;99.90;;;;;;5029932;28;20048;-65
2024/01/23 03:44:05;;;;;;;13.95;3.35;;;6.80;99.90;;;;;;5045356;28;20468;-65
2024/01/23 03:46:31;;;;;;;20.27;3.70;;;6.90;99.90;;;;;;5030349;28;20037;-65
2024/01/23 03:48:57;;;;;;;27.45;3.47;;;6.90;99.90;;;;;;5030680;28;20342;-65
2024/01/23 03:51:22;;;;;;;17.60;2.97;;;6.90;99.90;;;;;;5030247;28;20049;-65
2024/01/23 03:53:48;;;;;;;19.58;3.63;;;6.80;99.90;;;;;;5030047;28;20052;-65
2024/01/23 03:56:14;;;;;;;22.35;3.65;;;6.90;99.90;;;;;;5029570;28;20549;-65
2024/01/23 03:58:43;;;;;;;21.23;3.83;;;6.90;99.90;;;;;;5029564;28;20041;-65
2024/01/23 04:01:09;;;;;;;26.02;4.78;;;6.90;99.90;;;;;;5029271;28;20045;-64
2024/01/23 04:03:35;;;;;;;16.48;3.00;;;6.90;99.90;;;;;;5029493;28;20421;-65
2024/01/23 04:06:00;;;;;;;24.02;3.33;;;6.90;99.90;;;;;;5029518;28;20060;-64
2024/01/23 04:08:26;;;;;;;17.63;3.42;;;6.90;99.90;;;;;;5044766;28;20041;-64
2024/01/23 04:10:52;;;;;;;23.33;3.20;;;6.90;99.90;;;;;;5029139;28;20120;-64
2024/01/23 04:13:18;;;;;;;23.73;4.45;;;7.00;99.90;;;;;;5029104;28;20168;-64
2024/01/23 04:15:43;;;;;;;13.50;3.22;;;7.00;99.90;;;;;;5029679;28;20041;-64
2024/01/23 04:18:09;;;;;;;14.80;3.53;;;6.90;99.90;;;;;;5029560;28;20042;-65
2024/01/23 04:20:35;;;;;;;23.58;3.95;;;6.90;99.90;;;;;;5029483;28;20360;-65
2024/01/23 04:23:00;;;;;;;14.65;3.65;;;6.90;99.90;;;;;;5029519;28;20473;-65
2024/01/23 04:25:26;;;;;;;18.85;3.75;;;6.90;99.90;;;;;;5011275;28;20076;-65
2024/01/23 04:27:54;;;;;;;17.10;3.58;;;7.00;99.90;;;;;;5028579;28;20033;-65
2024/01/23 04:30:20;;;;;;;14.77;2.90;;;6.90;99.90;;;;;;5029318;28;20026;-65
2024/01/23 04:32:46;;;;;;;18.95;4.03;;;6.90;99.90;;;;;;5028981;28;20041;-65
2024/01/23 04:35:12;;;;;;;25.92;4.07;;;7.00;99.90;;;;;;5028977;28;20037;-65
2024/01/23 04:37:38;;;;;;;14.90;3.50;;;7.00;99.90;;;;;;5028648;28;20488;-64
2024/01/23 04:40:07;;;;;;;16.60;4.18;;;7.00;99.90;;;;;;5028824;28;20041;-65
2024/01/23 04:42:33;;;;;;;18.92;3.20;;;7.00;99.90;;;;;;5043654;28;20053;-65
2024/01/23 04:44:59;;;;;;;21.58;3.65;;;7.00;99.90;;;;;;5028907;28;20049;-65
2024/01/23 04:47:25;;;;;;;20.38;3.40;;;7.00;99.90;;;;;;5028837;28;20132;-65
2024/01/23 04:49:51;;;;;;;18.40;3.15;;;7.00;99.90;;;;;;5029059;28;20033;-65
2024/01/23 04:52:17;;;;;;;14.98;3.25;;;6.90;99.90;;;;;;5028802;28;20124;-65
2024/01/23 04:54:43;;;;;;;22.33;4.40;;;6.90;99.90;;;;;;5028646;28;20144;-65
2024/01/23 04:57:09;;;;;;;21.35;4.32;;;6.90;99.90;;;;;;5028749;28;20071;-65
2024/01/23 04:59:35;;;;;;;19.23;4.82;;;6.90;99.90;;;;;;5029438;28;20037;-65
2024/01/23 05:02:00;;;;;;;20.25;3.42;;;6.90;99.90;;;;;;5029090;28;20049;-65
2024/01/23 05:04:26;;;;;;;25.45;4.55;;;6.90;99.90;;;;;;5028811;28;20081;-64
2024/01/23 05:06:52;;;;;;;24.15;3.95;;;6.90;99.90;;;;;;5028631;28;20052;-65
2024/01/23 05:09:19;;;;;;;20.10;3.67;;;6.90;99.90;;;;;;5028527;28;20071;-65
2024/01/23 05:11:46;;;;;;;18.10;3.67;;;6.90;99.90;;;;;;5043669;28;20046;-64
2024/01/23 05:14:13;;;;;;;17.10;3.58;;;6.90;99.90;;;;;;5028521;28;20497;-65
2024/01/23 05:16:38;;;;;;;17.65;4.13;;;6.90;99.90;;;;;;5028722;28;20080;-65
2024/01/23 05:19:04;;;;;;;24.77;3.95;;;6.90;99.90;;;;;;5043670;28;20096;-65
2024/01/23 05:21:30;;;;;;;23.27;5.40;;;7.00;99.90;;;;;;5027833;28;20067;-65
2024/01/23 05:23:55;;;;;;;16.65;3.55;;;7.00;99.90;;;;;;5027844;28;20041;-64
2024/01/23 05:26:21;;;;;;;21.10;3.83;;;7.00;99.90;;;;;;5042870;28;20409;-65
2024/01/23 05:28:47;;;;;;;24.92;3.92;;;6.90;99.90;;;;;;5027858;28;20041;-65
2024/01/23 05:31:12;;;;;;;21.45;4.45;;;7.00;99.90;;;;;;5028132;28;20399;-65
2024/01/23 05:33:38;;;;;;;19.52;5.00;;;7.00;99.90;;;;;;5027928;28;20103;-65
2024/01/23 05:36:06;;;;;;;26.42;4.65;;;7.00;99.90;;;;;;5026598;28;20519;-64
2024/01/23 05:38:32;;;;;;;23.05;4.03;;;7.00;99.90;;;;;;5027605;28;20466;-64
2024/01/23 05:40:57;;;;;;;22.10;4.65;;;7.00;99.90;;;;;;5027942;28;20144;-64
2024/01/23 05:43:23;;;;;;;21.95;4.47;;;7.00;99.90;;;;;;5027750;28;20132;-64
2024/01/23 05:45:49;;;;;;;25.17;4.88;;;7.00;99.90;;;;;;5027649;28;20033;-64
2024/01/23 05:48:15;;;;;;;20.98;4.28;;;7.00;99.90;;;;;;5043349;28;20049;-64
2024/01/23 05:50:41;;;;;;;22.38;4.80;;;6.90;99.90;;;;;;5031776;28;20048;-64
2024/01/23 05:53:06;;;;;;;19.05;5.75;;;6.90;99.90;;;;;;5031284;28;20065;-64
2024/01/23 05:55:32;;;;;;;29.90;4.55;;;6.90;99.90;;;;;;5031245;28;20049;-65
2024/01/23 05:57:58;;;;;;;23.35;3.83;;;7.00;99.90;;;;;;5031450;28;20041;-65
2024/01/23 06:00:24;;;;;;;22.98;4.43;;;7.00;99.90;;;;;;5031347;28;20090;-65
2024/01/23 06:02:50;;;;;;;24.65;4.07;;;6.90;99.90;;;;;;5031353;28;20057;-65
2024/01/23 06:05:15;;;;;;;26.65;5.22;;;6.90;99.90;;;;;;5031632;28;20079;-65
2024/01/23 06:07:48;;;;;;;24.98;4.57;;;7.00;99.90;;;;;;5031053;28;20095;-65
2024/01/23 06:10:14;;;;;;;;;;;7.00;99.90;;;;;;5031664;28;20567;-65
2024/01/23 06:12:39;;;;;;;21.73;4.30;;;7.00;99.90;;;;;;5029615;28;19920;-66
2024/01/23 06:15:06;;;;;;;17.58;5.00;;;7.00;99.90;;;;;;5029637;28;20045;-66
2024/01/23 06:17:32;;;;;;;21.23;4.20;;;7.00;99.90;;;;;;5031896;28;20104;-66
2024/01/23 06:19:57;;;;;;;24.58;4.72;;;7.00;99.90;;;;;;5031512;28;20045;-65
2024/01/23 06:22:23;;;;;;;25.83;5.57;;;7.00;99.90;;;;;;5031279;28;20049;-65
2024/01/23 06:25:05;;;;;;;33.53;4.80;;;7.00;99.90;;;;;;5031338;28;20624;-65
2024/01/23 06:27:31;;;;;;;30.25;4.57;;;7.00;99.90;;;;;;5031301;28;20432;-65
2024/01/23 06:29:57;;;;;;;23.80;4.82;;;7.00;99.90;;;;;;5031555;28;20064;-65
2024/01/23 06:32:23;;;;;;;30.30;5.47;;;7.10;99.90;;;;;;5046367;28;20515;-66
2024/01/23 06:34:50;;;;;;;22.65;4.97;;;7.00;99.90;;;;;;5031114;28;20126;-66
2024/01/23 06:37:16;;;;;;;19.45;5.13;;;7.00;99.90;;;;;;5046102;28;20045;-66
2024/01/23 06:39:41;;;;;;;23.95;4.13;;;7.00;99.90;;;;;;5031385;28;20171;-66
2024/01/23 06:42:07;;;;;;;22.23;5.22;;;7.00;99.90;;;;;;5030918;28;20049;-65
2024/01/23 06:44:34;;;;;;;19.25;5.20;;;7.00;99.90;;;;;;5031117;28;20124;-66
2024/01/23 06:47:00;;;;;;;28.55;5.18;;;7.00;99.90;;;;;;5046250;28;20041;-66
2024/01/23 06:49:26;;;;;;;23.50;4.82;;;7.10;99.90;;;;;;5031132;28;20200;-66
2024/01/23 06:51:52;;;;;;;30.50;4.20;;;7.10;99.90;;;;;;5030691;28;20041;-65
2024/01/23 06:54:18;;;;;;;28.10;4.20;;;7.10;99.90;;;;;;5045958;28;20053;-65
2024/01/23 06:56:45;;;;;;;24.05;4.78;;;7.10;99.90;;;;;;5030964;28;20064;-65
2024/01/23 06:59:12;;;;;;;22.17;4.38;;;7.10;99.90;;;;;;5028589;28;20053;-65
2024/01/23 07:01:38;;;;;;;28.77;5.25;;;7.10;99.90;;;;;;5030354;28;20093;-66
2024/01/23 07:04:04;;;;;;;26.38;5.60;;;7.10;99.90;;;;;;5030877;28;20120;-66
2024/01/23 07:06:30;;;;;;;25.13;4.47;;;7.10;99.90;;;;;;5045834;28;20198;-65
2024/01/23 07:08:55;;;;;;;24.10;4.80;;;7.00;99.90;;;;;;5029374;28;20477;-66
2024/01/23 07:11:21;;;;;;;26.20;4.05;;;7.10;99.90;;;;;;5013885;28;20196;-65
2024/01/23 07:13:47;;;;;;;20.08;4.18;;;7.00;99.90;;;;;;5010602;28;20046;-65
2024/01/23 07:16:13;;;;;;;25.33;3.95;;;7.10;99.90;;;;;;5008197;28;20042;-65
2024/01/23 07:18:38;;;;;;;25.67;5.40;;;7.10;99.90;;;;;;5010509;28;20033;-65
2024/01/23 07:21:04;;;;;;;27.45;5.10;;;7.10;99.90;;;;;;5010431;28;20077;-65
2024/01/23 07:23:30;;;;;;;22.70;5.53;;;7.10;99.90;;;;;;5010373;28;20168;-65
2024/01/23 07:25:58;;;;;;;41.15;8.55;;;7.10;99.90;;;;;;5010344;28;20112;-64
2024/01/23 07:28:24;;;;;;;45.30;10.02;;;7.10;99.90;;;;;;5010320;28;20038;-65
2024/01/23 07:30:49;;;;;;;41.50;8.75;;;7.10;99.90;;;;;;5010649;28;20489;-65
2024/01/23 07:33:15;;;;;;;29.33;7.10;;;7.10;99.90;;;;;;5010804;28;20038;-66
2024/01/23 07:35:41;;;;;;;43.13;8.40;;;7.10;99.90;;;;;;5008982;28;20046;-65
2024/01/23 07:38:10;;;;;;;31.25;4.43;;;7.00;99.90;;;;;;5025710;28;20037;-66
2024/01/23 07:40:37;;;;;;;14.95;5.88;;;7.00;99.90;;;;;;5010772;28;20076;-65
2024/01/23 07:43:03;;;;;;;24.75;5.05;;;7.00;99.90;;;;;;5010591;28;20149;-66
2024/01/23 07:45:28;;;;;;;30.15;4.80;;;7.00;99.90;;;;;;5009044;28;20120;-66
2024/01/23 07:47:54;;;;;;;25.45;4.88;;;7.00;99.90;;;;;;5010189;28;20085;-66
2024/01/23 07:50:20;;;;;;;33.85;5.82;;;7.00;99.90;;;;;;5010803;28;20132;-66
2024/01/23 07:52:45;;;;;;;21.35;4.63;;;6.90;99.90;;;;;;5010084;28;20045;-67
2024/01/23 07:55:11;;;;;;;17.52;5.70;;;7.00;99.90;;;;;;5009951;28;20041;-66
2024/01/23 07:57:37;;;;;;;25.80;4.25;;;7.00;99.90;;;;;;5010933;28;20125;-67
2024/01/23 08:00:04;;;;;;;32.38;5.43;;;7.00;99.90;;;;;;5025806;28;20409;-67
2024/01/23 08:02:30;;;;;;;29.80;5.55;;;6.90;99.90;;;;;;5009746;28;20344;-67
2024/01/23 08:04:55;;;;;;;31.05;4.85;;;6.90;99.90;;;;;;5010226;28;20060;-67
2024/01/23 08:07:21;;;;;;;27.40;4.28;;;6.90;99.90;;;;;;5010763;28;20052;-67
2024/01/23 08:09:47;;;;;;;20.63;4.18;;;6.90;99.90;;;;;;5010590;28;20042;-67
2024/01/23 08:12:13;;;;;;;29.52;5.90;;;6.90;99.90;;;;;;5009938;28;20045;-68
2024/01/23 08:14:39;;;;;;;31.20;4.72;;;6.90;99.90;;;;;;5007646;28;20044;-67
2024/01/23 08:17:05;;;;;;;30.05;4.18;;;6.90;99.90;;;;;;5001444;28;20121;-67
2024/01/23 08:19:30;;;;;;;27.25;4.90;;;6.90;99.90;;;;;;5022743;28;20033;-68
2024/01/23 08:21:56;;;;;;;28.15;4.75;;;6.90;99.90;;;;;;5010372;28;20050;-66
2024/01/23 08:24:22;;;;;;;18.80;4.68;;;6.80;99.90;;;;;;5025183;28;20065;-67
2024/01/23 08:26:52;;;;;;;30.15;4.75;;;6.80;99.90;;;;;;5010651;28;20042;-67
2024/01/23 08:29:19;;;;;;;24.00;5.35;;;6.80;99.90;;;;;;5010588;28;20072;-67
2024/01/23 08:31:45;;;;;;;29.73;6.22;;;6.80;99.90;;;;;;5025623;28;20056;-67
2024/01/23 08:34:10;;;;;;;29.92;5.63;;;6.80;99.90;;;;;;5010239;28;20050;-67
2024/01/23 08:36:36;;;;;;;24.70;6.45;;;6.70;99.90;;;;;;5010488;28;20037;-66
2024/01/23 08:39:02;;;;;;;28.20;4.82;;;6.70;99.90;;;;;;5010480;28;20471;-66
2024/01/23 08:41:29;;;;;;;18.20;5.22;;;6.80;99.90;;;;;;5009897;28;20041;-66
2024/01/23 08:43:55;;;;;;;29.17;5.38;;;6.70;99.90;;;;;;5009966;28;20053;-67
2024/01/23 08:46:24;;;;;;;30.00;5.22;;;6.70;99.90;;;;;;5010184;28;20084;-67
2024/01/23 08:48:50;;;;;;;29.98;5.80;;;6.70;99.90;;;;;;5010096;28;20069;-67
2024/01/23 08:51:16;;;;;;;34.42;5.68;;;6.70;99.90;;;;;;5010004;28;20152;-67
2024/01/23 08:53:42;;;;;;;31.20;6.28;;;6.70;99.90;;;;;;5010020;28;20421;-67
2024/01/23 08:56:08;;;;;;;28.13;5.93;;;6.80;99.90;;;;;;5025077;28;20076;-67
2024/01/23 08:58:33;;;;;;;24.25;4.63;;;6.80;99.90;;;;;;5009811;28;20347;-67
2024/01/23 09:00:59;;;;;;;35.75;5.03;;;6.70;99.90;;;;;;5009781;28;20057;-67
2024/01/23 09:03:25;;;;;;;30.67;5.10;;;6.70;99.90;;;;;;5009876;28;20135;-67
2024/01/23 09:05:51;;;;;;;26.70;4.85;;;6.70;99.90;;;;;;5009822;28;20050;-67
2024/01/23 09:08:17;;;;;;;24.45;4.53;;;6.80;99.90;;;;;;5024707;28;20038;-67
2024/01/23 09:10:43;;;;;;;30.35;4.95;;;6.80;99.90;;;;;;5024832;28;20042;-66
2024/01/23 09:13:08;;;;;;;33.72;6.45;;;6.80;99.90;;;;;;5024718;28;20053;-66
2024/01/23 09:15:35;;;;;;;28.20;4.80;;;6.80;99.90;;;;;;5009694;28;20133;-66
2024/01/23 09:18:01;;;;;;;29.60;4.85;;;6.80;99.90;;;;;;5009668;28;20037;-67
2024/01/23 09:20:26;;;;;;;26.08;4.85;;;6.80;99.90;;;;;;5009482;28;20405;-66
2024/01/23 09:22:52;;;;;;;24.20;4.88;;;6.90;99.90;;;;;;5009518;28;20045;-67
2024/01/23 09:25:18;;;;;;;29.10;5.20;;;6.90;99.90;;;;;;5024525;28;20049;-67
2024/01/23 09:27:44;;;;;;;20.10;4.28;;;6.90;99.90;;;;;;5007555;28;20131;-67
2024/01/23 09:30:11;;;;;;;37.72;7.35;;;7.00;99.90;;;;;;5009272;28;20176;-66
2024/01/23 09:32:36;;;;;;;22.45;5.63;;;7.20;99.90;;;;;;5011024;28;20060;-66
2024/01/23 09:35:02;;;;;;;38.15;5.43;;;7.20;99.90;;;;;;5044221;28;20049;-66
2024/01/23 09:37:28;;;;;;;38.88;5.78;;;7.10;99.90;;;;;;5029394;28;20128;-67
2024/01/23 09:39:55;;;;;;;29.50;5.55;;;7.10;99.90;;;;;;5029122;28;20037;-66
2024/01/23 09:42:23;;;;;;;31.90;5.65;;;7.00;99.90;;;;;;5029007;28;20172;-67
2024/01/23 09:44:53;;;;;;;30.67;5.35;;;7.10;99.90;;;;;;5029133;28;20045;-67
2024/01/23 09:47:23;;;;;;;36.38;4.70;;;7.00;99.90;;;;;;5028896;28;20073;-67
2024/01/23 09:49:51;;;;;;;36.15;4.82;;;7.10;99.90;;;;;;5029085;28;20435;-67
2024/01/23 09:52:18;;;;;;;30.77;4.78;;;7.10;99.90;;;;;;5044245;28;20087;-67
2024/01/23 09:54:44;;;;;;;28.75;5.47;;;7.10;99.90;;;;;;5029366;28;20056;-67
2024/01/23 09:57:12;;;;;;;30.77;6.07;;;7.10;99.90;;;;;;5029254;28;20156;-67
2024/01/23 09:59:38;;;;;;;20.77;5.35;;;7.10;99.90;;;;;;5029014;28;20061;-67
2024/01/23 10:02:07;;;;;;;34.85;4.65;;;7.20;99.90;;;;;;5029086;28;20050;-67
2024/01/23 10:04:33;;;;;;;26.98;4.97;;;7.20;99.90;;;;;;5029289;28;20429;-67
2024/01/23 10:07:07;;;;;;;24.30;4.22;;;7.30;99.90;;;;;;5029175;28;20091;-67
2024/01/23 10:09:33;;;;;;;27.10;4.63;;;7.40;99.90;;;;;;5029047;28;20037;-67
2024/01/23 10:11:59;;;;;;;26.48;5.13;;;7.50;99.90;;;;;;5029144;28;20046;-67
2024/01/23 10:14:25;;;;;;;32.08;5.05;;;7.50;99.90;;;;;;5028804;28;20052;-67
2024/01/23 10:16:50;;;;;;;32.70;5.07;;;7.60;99.90;;;;;;5029027;28;20045;-67
2024/01/23 10:19:16;;;;;;;31.38;4.18;;;7.70;99.90;;;;;;5043988;28;20052;-67
2024/01/23 10:21:42;;;;;;;36.90;6.03;;;7.70;99.90;;;;;;5028789;28;20372;-67
2024/01/23 10:24:08;;;;;;;27.33;6.38;;;7.70;99.90;;;;;;5028989;28;20500;-67
2024/01/23 10:26:34;;;;;;;21.38;5.00;;;7.70;99.90;;;;;;5028730;28;20152;-67
2024/01/23 10:29:04;;;;;;;23.10;4.43;;;7.70;99.90;;;;;;5027234;28;20045;-66
2024/01/23 10:31:30;;;;;;;23.45;5.75;;;7.70;99.90;;;;;;5043967;28;20092;-67
2024/01/23 10:33:57;;;;;;;27.25;5.25;;;7.80;99.90;;;;;;5028790;28;20081;-67
2024/01/23 10:36:23;;;;;;;34.92;5.93;;;7.80;99.90;;;;;;5037543;28;20376;-67
2024/01/23 10:38:50;;;;;;;23.90;5.63;;;7.80;99.90;;;;;;5030180;28;20370;-67
2024/01/23 10:41:20;;;;;;;28.02;5.88;;;7.80;99.90;;;;;;5047107;28;20041;-67
2024/01/23 10:43:52;;;;;;;32.60;5.35;;;7.80;99.90;;;;;;5031610;28;20548;-67
2024/01/23 10:46:18;;;;;;;25.67;4.70;;;7.80;99.90;;;;;;5047010;28;20164;-67
2024/01/23 10:48:44;;;;;;;27.65;5.20;;;7.90;99.90;;;;;;5031925;28;20045;-68
2024/01/23 10:51:20;;;;;;;28.33;5.10;;;7.90;99.90;;;;;;5031653;28;20508;-67
2024/01/23 10:54:01;;;;;;;27.70;4.65;;;7.90;99.90;;;;;;5031928;28;20091;-68
2024/01/23 10:56:43;;;;;;;39.53;6.03;;;7.90;99.90;;;;;;5031687;28;20049;-68
2024/01/23 10:59:17;;;;;;;35.65;5.07;;;7.90;99.90;;;;;;5031869;28;20033;-68
2024/01/23 11:01:45;;;;;;;30.85;5.05;;;7.90;99.90;;;;;;5031281;28;20084;-68
2024/01/23 11:04:11;;;;;;;24.65;4.93;;;7.90;99.90;;;;;;5032311;28;20088;-68
2024/01/23 11:07:03;;;;;;;29.38;4.82;;;7.90;99.90;;;;;;5032207;28;20072;-66
2024/01/23 11:10:00;;;;;;;31.65;5.22;;;8.00;99.90;;;;;;5031315;28;20484;-67
2024/01/23 11:12:36;;;;;;;31.55;4.88;;;8.00;99.90;;;;;;5031208;28;20122;-66
2024/01/23 11:15:24;;;;;;;23.27;4.90;;;8.00;99.90;;;;;;5031250;28;20045;-67
2024/01/23 11:17:53;;;;;;;29.60;4.55;;;8.00;99.90;;;;;;5031447;28;20128;-67
2024/01/23 11:20:18;;;;;;;27.73;5.50;;;8.00;99.90;;;;;;5031192;28;20076;-67
2024/01/23 11:22:44;;;;;;;42.35;6.38;;;8.00;99.90;;;;;;5031300;28;20127;-67
2024/01/23 11:25:10;;;;;;;22.83;4.30;;;8.00;99.90;;;;;;5046431;28;20501;-68
2024/01/23 11:27:38;;;;;;;23.67;4.82;;;8.00;99.90;;;;;;5045866;28;20052;-67
2024/01/23 11:30:08;;;;;;;32.92;5.07;;;8.00;99.90;;;;;;5031014;28;20460;-66
2024/01/23 11:32:34;;;;;;;21.35;4.03;;;8.00;99.90;;;;;;5019825;28;20056;-66
2024/01/23 11:35:06;;;;;;;29.67;5.50;;;8.10;99.90;;;;;;5011060;28;20121;-66
2024/01/23 11:37:32;;;;;;;31.17;4.70;;;8.10;99.90;;;;;;5018013;28;20083;-66
2024/01/23 11:40:04;;;;;;;25.73;4.47;;;8.00;99.90;;;;;;5029642;28;20053;-66
2024/01/23 11:42:42;;;;;;;37.75;4.97;;;8.10;99.90;;;;;;5020983;28;20656;-66
2024/01/23 11:45:28;;;;;;;22.45;5.30;;;8.10;99.90;;;;;;5026226;28;20057;-66
2024/01/23 11:48:02;;;;;;;34.67;6.20;;;8.10;99.90;;;;;;5011231;28;20044;-66
2024/01/23 11:50:30;;;;;;;25.52;5.40;;;8.20;99.90;;;;;;5011371;28;20124;-66
2024/01/23 11:52:58;;;;;;;33.97;4.63;;;8.20;99.90;;;;;;5011092;28;20061;-66
2024/01/23 11:55:25;;;;;;;24.88;4.50;;;8.20;99.90;;;;;;5011150;28;20042;-66
2024/01/23 11:57:54;;;;;;;30.30;4.85;;;8.20;99.90;;;;;;5010761;28;20069;-66
2024/01/23 12:00:21;;;;;;;29.65;6.35;;;8.20;99.90;;;;;;5010631;28;20112;-66
2024/01/23 12:02:47;;;;;;;22.15;4.70;;;8.20;99.90;;;;;;5010861;28;20042;-66
2024/01/23 12:05:13;;;;;;;28.50;5.43;;;8.20;99.90;;;;;;5025976;28;20056;-66
2024/01/23 12:07:40;;;;;;;24.85;4.57;;;8.20;99.90;;;;;;5010924;28;20073;-66
2024/01/23 12:10:24;;;;;;;30.13;5.47;;;8.30;99.90;;;;;;5010418;28;20044;-65
2024/01/23 12:12:56;;;;;;;27.17;4.25;;;8.20;99.90;;;;;;5009341;28;20050;-66
2024/01/23 12:15:22;;;;;;;25.00;5.00;;;8.30;99.90;;;;;;4990785;28;20146;-66
2024/01/23 12:17:50;;;;;;;22.85;5.40;;;8.30;99.90;;;;;;4991660;28;20046;-66
2024/01/23 12:20:16;;;;;;;26.13;4.65;;;8.20;99.90;;;;;;5010594;28;20085;-65
2024/01/23 12:22:42;;;;;;;28.60;5.38;;;8.10;99.90;;;;;;5010151;28;20046;-66
2024/01/23 12:25:10;;;;;;;22.38;4.35;;;8.00;99.90;;;;;;5010118;28;20698;-65
2024/01/23 12:27:36;;;;;;;23.08;5.88;;;8.10;99.90;;;;;;5010330;28;20041;-66
2024/01/23 12:30:03;;;;;;;25.67;4.30;;;8.20;99.90;;;;;;5010465;28;20064;-67
2024/01/23 12:32:29;;;;;;;25.15;5.10;;;8.20;99.90;;;;;;5009002;28;20053;-66
2024/01/23 12:34:56;;;;;;;25.05;5.20;;;8.20;99.90;;;;;;5010162;28;20046;-65
2024/01/23 12:37:29;;;;;;;26.08;4.80;;;8.30;99.90;;;;;;5025287;28;20061;-66
2024/01/23 12:39:58;;;;;;;29.42;5.28;;;8.30;99.90;;;;;;5025717;28;20456;-66
2024/01/23 12:42:24;;;;;;;27.23;4.47;;;8.30;99.90;;;;;;5009091;28;20046;-65
2024/01/23 12:44:51;;;;;;;25.20;4.95;;;8.40;99.90;;;;;;5010232;28;20537;-66
2024/01/23 12:47:17;;;;;;;27.40;4.97;;;8.40;99.90;;;;;;5010479;28;20078;-65